Alfa Sea — 3FQJ9 — position and weather

sailwx.info

Track history (hours):
 
Tides and Currents Weather Stations Pressure Air Temp Water Temp Dewpoint Dewpoint Depression Visibility Wind Speed Wind Dir Waves Ship Positions

Alfa Sea

Last reported at 2017-Dec-18 19:58 UTC. Time now 2017-Dec-18 20:08 UTC.
Position N 38°01' E 023°33'.

Length 100 m; draft 5.2 m.

Type: Tanker. MMSI: 353657000.

Date/timePositionNaut miles runAvg speedWind from/ knotsBaromVisibWave heightAir tempDewpointWater temp
2017-Dec-18 19:58N 38°01' E 023°33'0 0.1
2017-Dec-18 19:28N 38°01' E 023°33'0 0.0
2017-Dec-18 18:58N 38°01' E 023°33'0 0.1
2017-Dec-18 18:28N 38°01' E 023°33'0 0.0
2017-Dec-18 17:58N 38°01' E 023°33'0 0.1
2017-Dec-18 17:28N 38°02' E 023°33'0 0.1
2017-Dec-18 16:58N 38°01' E 023°33'0 0.0
2017-Dec-18 16:28N 38°01' E 023°33'0 0.1
2017-Dec-18 15:58N 38°02' E 023°33'0 0.1
2017-Dec-18 15:28N 38°02' E 023°33'0 0.0
2017-Dec-18 14:58N 38°02' E 023°33'0 0.1
2017-Dec-18 14:25N 38°02' E 023°32'0 0.0
2017-Dec-18 13:58N 38°02' E 023°32'0 0.0
2017-Dec-18 13:28N 38°02' E 023°33'0 0.0
2017-Dec-18 12:58N 38°02' E 023°33'0 0.2
2017-Dec-18 12:28N 38°01' E 023°33'0 0.0
2017-Dec-18 11:58N 38°01' E 023°33'0 0.1
2017-Dec-18 11:28N 38°02' E 023°33'0 0.1
2017-Dec-18 10:58N 38°02' E 023°32'0 0.0
2017-Dec-18 10:28N 38°02' E 023°32'0 0.5
2017-Dec-18 10:00N 38°01' E 023°32'3 6.9
2017-Dec-18 09:30N 37°58' E 023°33'3 6.7
2017-Dec-18 09:00N 37°55' E 023°36'0 0.5
2017-Dec-18 08:30N 37°55' E 023°36'1 1.7
2017-Dec-18 08:00N 37°54' E 023°36'1 1.9
2017-Dec-18 07:30N 37°54' E 023°36'1 2.5
2017-Dec-18 07:00N 37°53' E 023°37'510.5
2017-Dec-18 06:30N 37°48' E 023°41'612.7
2017-Dec-18 06:00N 37°42' E 023°44'712.7
2017-Dec-18 05:26N 37°37' E 023°50'2012.8
2017-Dec-18 03:55N 37°24' E 024°09'512.5
2017-Dec-18 03:30N 37°21' E 024°13'612.3
2017-Dec-18 02:59N 37°17' E 024°20'612.1
2017-Dec-18 02:30N 37°15' E 024°27'612.0
2017-Dec-18 02:00N 37°13' E 024°34'612.3
2017-Dec-18 01:30N 37°13' E 024°42'612.1
2017-Dec-18 01:00N 37°13' E 024°49'612.2
2017-Dec-18 00:30N 37°14' E 024°57'612.3
2017-Dec-18 00:00N 37°14' E 025°05'612.5
2017-Dec-17 23:30N 37°14' E 025°12'2 0.5
2017-Dec-17 20:04N 37°14' E 025°15'112.4
2017-Dec-17 20:00N 37°14' E 025°16'611.9
2017-Dec-17 19:30N 37°14' E 025°23'611.9
2017-Dec-17 19:00N 37°14' E 025°30'712.0
2017-Dec-17 18:27N 37°13' E 025°39'512.2
2017-Dec-17 18:00N 37°12' E 025°45'611.8
2017-Dec-17 17:30N 37°10' E 025°52'612.0
2017-Dec-17 17:00N 37°06' E 025°58'612.4
2017-Dec-17 16:30N 37°02' E 026°04'612.4
2017-Dec-17 16:00N 36°58' E 026°11'612.6
2017-Dec-17 15:30N 36°55' E 026°17'612.4
2017-Dec-17 15:00N 36°52' E 026°24'612.5
2017-Dec-17 14:30N 36°48' E 026°30'713.0
2017-Dec-17 14:00N 36°43' E 026°36'612.7
2017-Dec-17 13:30N 36°39' E 026°42'712.5
2017-Dec-17 12:56N 36°34' E 026°48'  
2017-Dec-14 00:52N 35°42' E 030°20'18511.1
2017-Dec-13 08:10N 36°42' E 026°43'311.5
2017-Dec-13 07:55N 36°44' E 026°41'511.4
2017-Dec-13 07:30N 36°46' E 026°36'611.4
2017-Dec-13 07:00N 36°49' E 026°30'611.6
2017-Dec-13 06:30N 36°52' E 026°23'611.7
2017-Dec-13 06:00N 36°55' E 026°17'611.6
2017-Dec-13 05:30N 36°58' E 026°11'611.6
2017-Dec-13 05:00N 37°02' E 026°05'611.8
2017-Dec-13 04:30N 37°06' E 025°59'611.9
2017-Dec-13 04:00N 37°09' E 025°54'611.6
2017-Dec-13 03:30N 37°11' E 025°47'611.8
2017-Dec-13 03:00N 37°13' E 025°40'611.8
2017-Dec-13 02:30N 37°15' E 025°33'611.2
2017-Dec-13 02:00N 37°15' E 025°25'611.6
2017-Dec-13 01:30N 37°14' E 025°18'611.9
2017-Dec-13 01:00N 37°14' E 025°11'611.9
2017-Dec-13 00:29N 37°14' E 025°03'611.8
2017-Dec-13 00:00N 37°14' E 024°56'611.8
2017-Dec-12 23:30N 37°13' E 024°49'611.9
2017-Dec-12 23:00N 37°13' E 024°41'611.5
2017-Dec-12 22:30N 37°13' E 024°34'611.1
2017-Dec-12 22:00N 37°16' E 024°27'611.4
2017-Dec-12 21:30N 37°17' E 024°20'611.4
2017-Dec-12 21:00N 37°20' E 024°15'611.5
2017-Dec-12 20:30N 37°24' E 024°09'611.7
2017-Dec-12 19:57N 37°28' E 024°03'1911.6
2017-Dec-12 18:20N 37°39' E 023°44'411.4
2017-Dec-12 18:00N 37°43' E 023°42'611.7
2017-Dec-12 17:30N 37°48' E 023°38'611.4
2017-Dec-12 17:00N 37°53' E 023°37'4 8.6
2017-Dec-12 16:30N 37°57' E 023°34'4 7.1
2017-Dec-12 16:00N 38°01' E 023°35'1 2.0
2017-Dec-12 15:28N 38°01' E 023°36'0 0.0
2017-Dec-12 14:58N 38°01' E 023°36'0 0.0
2017-Dec-12 14:25N 38°01' E 023°36'0 0.0
2017-Dec-12 13:58N 38°01' E 023°36'0 0.0
2017-Dec-12 13:28N 38°01' E 023°36'0 0.0
2017-Dec-12 12:52N 38°01' E 023°36'0 0.0
2017-Dec-12 12:16N 38°01' E 023°36'0 0.0
2017-Dec-12 11:58N 38°01' E 023°36'0 0.0
2017-Dec-12 11:28N 38°01' E 023°36'0 0.0
2017-Dec-12 10:58N 38°01' E 023°36'0 0.0
2017-Dec-12 10:28N 38°01' E 023°36'0 0.0
2017-Dec-12 09:58N 38°01' E 023°36'0 0.0
2017-Dec-12 09:28N 38°01' E 023°36'0 0.0
2017-Dec-12 08:58N 38°01' E 023°36'0 0.3
2017-Dec-12 08:30N 38°01' E 023°36'1 1.0
2017-Dec-12 07:58N 38°02' E 023°36'0 0.0
2017-Dec-12 07:28N 38°02' E 023°36'0 0.0
2017-Dec-12 06:55N 38°02' E 023°36'0 0.0
2017-Dec-12 06:28N 38°02' E 023°36'0 0.0
2017-Dec-12 05:58N 38°02' E 023°36'0 0.0
2017-Dec-12 05:28N 38°02' E 023°36'0 0.0
2017-Dec-12 04:58N 38°02' E 023°36'0 0.0
2017-Dec-12 04:28N 38°02' E 023°36'0 0.0
2017-Dec-12 03:58N 38°02' E 023°36'0 0.0
2017-Dec-12 03:28N 38°02' E 023°36'0 0.0
2017-Dec-12 02:58N 38°02' E 023°36'0 0.0
2017-Dec-12 02:28N 38°02' E 023°36'0 0.0
2017-Dec-12 01:58N 38°02' E 023°36'0 0.0
2017-Dec-12 01:28N 38°02' E 023°36'0 0.0
2017-Dec-12 00:58N 38°02' E 023°36'0 0.0
2017-Dec-12 00:28N 38°02' E 023°36'0 0.0
2017-Dec-11 23:58N 38°02' E 023°36'0 0.0
2017-Dec-11 23:28N 38°02' E 023°36'0 0.0
2017-Dec-11 22:58N 38°02' E 023°36'0 0.0
2017-Dec-11 22:28N 38°02' E 023°36'0 0.0
2017-Dec-11 21:58N 38°02' E 023°36'0 0.0
2017-Dec-11 21:28N 38°02' E 023°36'0 0.0
2017-Dec-11 20:58N 38°02' E 023°36'0 0.0
2017-Dec-11 20:28N 38°02' E 023°36'0 0.0
2017-Dec-11 19:58N 38°02' E 023°36'0 0.0
2017-Dec-11 19:28N 38°02' E 023°36'0 0.0
2017-Dec-11 18:58N 38°02' E 023°36'0 0.0
2017-Dec-11 18:28N 38°02' E 023°36'0 0.0
2017-Dec-11 17:58N 38°02' E 023°36'0 0.0
2017-Dec-11 17:28N 38°02' E 023°36'0 0.0
2017-Dec-11 16:58N 38°02' E 023°36'0 0.0
2017-Dec-11 16:28N 38°02' E 023°36'0 0.0
2017-Dec-11 15:58N 38°02' E 023°36'0 0.0
2017-Dec-11 15:28N 38°02' E 023°36'0 0.0
2017-Dec-11 14:58N 38°02' E 023°36'0 0.0
2017-Dec-11 14:28N 38°02' E 023°36'0 0.0
2017-Dec-11 13:58N 38°02' E 023°36'0 0.2
2017-Dec-11 13:31N 38°02' E 023°36'3 6.2
2017-Dec-11 13:00N 38°01' E 023°32'0 0.2
2017-Dec-11 12:30N 38°01' E 023°32'0 0.0
2017-Dec-11 11:57N 38°01' E 023°32'0 0.0
2017-Dec-11 11:30N 38°01' E 023°32'0 0.0
2017-Dec-11 11:00N 38°01' E 023°32'0 0.1
2017-Dec-11 10:30N 38°01' E 023°32'0 0.1
2017-Dec-11 10:00N 38°01' E 023°32'0 0.0
2017-Dec-11 09:30N 38°01' E 023°32'0 0.2
2017-Dec-11 09:00N 38°01' E 023°32'1 2.9
2017-Dec-11 08:30N 37°60' E 023°33'5 9.3
2017-Dec-11 08:00N 37°56' E 023°35'1 1.9
2017-Dec-11 07:30N 37°55' E 023°35'1 2.8
2017-Dec-11 07:00N 37°54' E 023°36'0 0.7
2017-Dec-11 06:30N 37°53' E 023°37'1 1.2
2017-Dec-11 06:00N 37°53' E 023°37'510.7
2017-Dec-11 05:30N 37°48' E 023°40'612.6
2017-Dec-11 05:00N 37°43' E 023°44'612.7
2017-Dec-11 04:30N 37°38' E 023°49'1312.4
2017-Dec-11 03:29N 37°29' E 024°00'612.3
2017-Dec-11 03:00N 37°24' E 024°05'612.3
2017-Dec-11 02:30N 37°19' E 024°10'612.6
2017-Dec-11 02:00N 37°14' E 024°14'612.5
2017-Dec-11 01:30N 37°09' E 024°19'612.3
2017-Dec-11 01:00N 37°05' E 024°24'612.4
2017-Dec-11 00:30N 37°00' E 024°30'612.6
2017-Dec-11 00:00N 36°56' E 024°35'612.2
2017-Dec-10 23:30N 36°52' E 024°41'612.3
2017-Dec-10 23:00N 36°51' E 024°49'8 4.3
2017-Dec-10 21:08N 36°51' E 024°59'112.0
2017-Dec-10 21:00N 36°51' E 025°01'611.9
2017-Dec-10 20:30N 36°51' E 025°08'611.7
2017-Dec-10 20:00N 36°50' E 025°15'611.6
2017-Dec-10 19:30N 36°48' E 025°22'612.3
2017-Dec-10 19:00N 36°47' E 025°30'612.0
2017-Dec-10 18:30N 36°46' E 025°37'611.6
2017-Dec-10 18:00N 36°44' E 025°44'611.4
2017-Dec-10 17:30N 36°43' E 025°51'611.2
2017-Dec-10 17:00N 36°43' E 025°58'511.0
2017-Dec-10 16:30N 36°43' E 026°05'611.1
2017-Dec-10 16:00N 36°42' E 026°12'611.4
2017-Dec-10 15:30N 36°42' E 026°19'611.6
2017-Dec-10 15:00N 36°42' E 026°26'612.0
2017-Dec-10 14:30N 36°40' E 026°33'612.2
2017-Dec-10 14:00N 36°38' E 026°40'  
Track history (hours):
 
Tides and Currents Weather Stations Pressure Air Temp Water Temp Dewpoint Dewpoint Depression Visibility Wind Speed Wind Dir Waves Ship Positions

Alfa Sea

Last reported at 2017-Dec-18 19:58 UTC. Time now 2017-Dec-18 20:08 UTC.
Position N 38°01' E 023°33'.

Length 100 m; draft 5.2 m.

Type: Tanker. MMSI: 353657000.

Date/timePositionNaut miles runAvg speedWind from/ knotsBaromVisibWave heightAir tempDewpointWater temp
2017-Dec-18 19:58N 38°01' E 023°33'0 0.1
2017-Dec-18 19:28N 38°01' E 023°33'0 0.0
2017-Dec-18 18:58N 38°01' E 023°33'0 0.1
2017-Dec-18 18:28N 38°01' E 023°33'0 0.0
2017-Dec-18 17:58N 38°01' E 023°33'0 0.1
2017-Dec-18 17:28N 38°02' E 023°33'0 0.1
2017-Dec-18 16:58N 38°01' E 023°33'0 0.0
2017-Dec-18 16:28N 38°01' E 023°33'0 0.1
2017-Dec-18 15:58N 38°02' E 023°33'0 0.1
2017-Dec-18 15:28N 38°02' E 023°33'0 0.0
2017-Dec-18 14:58N 38°02' E 023°33'0 0.1
2017-Dec-18 14:25N 38°02' E 023°32'0 0.0
2017-Dec-18 13:58N 38°02' E 023°32'0 0.0
2017-Dec-18 13:28N 38°02' E 023°33'0 0.0
2017-Dec-18 12:58N 38°02' E 023°33'0 0.2
2017-Dec-18 12:28N 38°01' E 023°33'0 0.0
2017-Dec-18 11:58N 38°01' E 023°33'0 0.1
2017-Dec-18 11:28N 38°02' E 023°33'0 0.1
2017-Dec-18 10:58N 38°02' E 023°32'0 0.0
2017-Dec-18 10:28N 38°02' E 023°32'0 0.5
2017-Dec-18 10:00N 38°01' E 023°32'3 6.9
2017-Dec-18 09:30N 37°58' E 023°33'3 6.7
2017-Dec-18 09:00N 37°55' E 023°36'0 0.5
2017-Dec-18 08:30N 37°55' E 023°36'1 1.7
2017-Dec-18 08:00N 37°54' E 023°36'1 1.9
2017-Dec-18 07:30N 37°54' E 023°36'1 2.5
2017-Dec-18 07:00N 37°53' E 023°37'510.5
2017-Dec-18 06:30N 37°48' E 023°41'612.7
2017-Dec-18 06:00N 37°42' E 023°44'712.7
2017-Dec-18 05:26N 37°37' E 023°50'2012.8
2017-Dec-18 03:55N 37°24' E 024°09'512.5
2017-Dec-18 03:30N 37°21' E 024°13'612.3
2017-Dec-18 02:59N 37°17' E 024°20'612.1
2017-Dec-18 02:30N 37°15' E 024°27'612.0
2017-Dec-18 02:00N 37°13' E 024°34'612.3
2017-Dec-18 01:30N 37°13' E 024°42'612.1
2017-Dec-18 01:00N 37°13' E 024°49'612.2
2017-Dec-18 00:30N 37°14' E 024°57'612.3
2017-Dec-18 00:00N 37°14' E 025°05'612.5
2017-Dec-17 23:30N 37°14' E 025°12'2 0.5
2017-Dec-17 20:04N 37°14' E 025°15'112.4
2017-Dec-17 20:00N 37°14' E 025°16'611.9
2017-Dec-17 19:30N 37°14' E 025°23'611.9
2017-Dec-17 19:00N 37°14' E 025°30'712.0
2017-Dec-17 18:27N 37°13' E 025°39'512.2
2017-Dec-17 18:00N 37°12' E 025°45'611.8
2017-Dec-17 17:30N 37°10' E 025°52'612.0
2017-Dec-17 17:00N 37°06' E 025°58'612.4
2017-Dec-17 16:30N 37°02' E 026°04'612.4
2017-Dec-17 16:00N 36°58' E 026°11'612.6
2017-Dec-17 15:30N 36°55' E 026°17'612.4
2017-Dec-17 15:00N 36°52' E 026°24'612.5
2017-Dec-17 14:30N 36°48' E 026°30'713.0
2017-Dec-17 14:00N 36°43' E 026°36'612.7
2017-Dec-17 13:30N 36°39' E 026°42'712.5
2017-Dec-17 12:56N 36°34' E 026°48'  
2017-Dec-14 00:52N 35°42' E 030°20'18511.1
2017-Dec-13 08:10N 36°42' E 026°43'311.5
2017-Dec-13 07:55N 36°44' E 026°41'511.4
2017-Dec-13 07:30N 36°46' E 026°36'611.4
2017-Dec-13 07:00N 36°49' E 026°30'611.6
2017-Dec-13 06:30N 36°52' E 026°23'611.7
2017-Dec-13 06:00N 36°55' E 026°17'611.6
2017-Dec-13 05:30N 36°58' E 026°11'611.6
2017-Dec-13 05:00N 37°02' E 026°05'611.8
2017-Dec-13 04:30N 37°06' E 025°59'611.9
2017-Dec-13 04:00N 37°09' E 025°54'611.6
2017-Dec-13 03:30N 37°11' E 025°47'611.8
2017-Dec-13 03:00N 37°13' E 025°40'611.8
2017-Dec-13 02:30N 37°15' E 025°33'611.2
2017-Dec-13 02:00N 37°15' E 025°25'611.6
2017-Dec-13 01:30N 37°14' E 025°18'611.9
2017-Dec-13 01:00N 37°14' E 025°11'611.9
2017-Dec-13 00:29N 37°14' E 025°03'611.8
2017-Dec-13 00:00N 37°14' E 024°56'611.8
2017-Dec-12 23:30N 37°13' E 024°49'611.9
2017-Dec-12 23:00N 37°13' E 024°41'611.5
2017-Dec-12 22:30N 37°13' E 024°34'611.1
2017-Dec-12 22:00N 37°16' E 024°27'611.4
2017-Dec-12 21:30N 37°17' E 024°20'611.4
2017-Dec-12 21:00N 37°20' E 024°15'611.5
2017-Dec-12 20:30N 37°24' E 024°09'611.7
2017-Dec-12 19:57N 37°28' E 024°03'1911.6
2017-Dec-12 18:20N 37°39' E 023°44'411.4
2017-Dec-12 18:00N 37°43' E 023°42'611.7
2017-Dec-12 17:30N 37°48' E 023°38'611.4
2017-Dec-12 17:00N 37°53' E 023°37'4 8.6
2017-Dec-12 16:30N 37°57' E 023°34'4 7.1
2017-Dec-12 16:00N 38°01' E 023°35'1 2.0
2017-Dec-12 15:28N 38°01' E 023°36'0 0.0
2017-Dec-12 14:58N 38°01' E 023°36'0 0.0
2017-Dec-12 14:25N 38°01' E 023°36'0 0.0
2017-Dec-12 13:58N 38°01' E 023°36'0 0.0
2017-Dec-12 13:28N 38°01' E 023°36'0 0.0
2017-Dec-12 12:52N 38°01' E 023°36'0 0.0
2017-Dec-12 12:16N 38°01' E 023°36'0 0.0
2017-Dec-12 11:58N 38°01' E 023°36'0 0.0
2017-Dec-12 11:28N 38°01' E 023°36'0 0.0
2017-Dec-12 10:58N 38°01' E 023°36'0 0.0
2017-Dec-12 10:28N 38°01' E 023°36'0 0.0
2017-Dec-12 09:58N 38°01' E 023°36'0 0.0
2017-Dec-12 09:28N 38°01' E 023°36'0 0.0
2017-Dec-12 08:58N 38°01' E 023°36'0 0.3
2017-Dec-12 08:30N 38°01' E 023°36'1 1.0
2017-Dec-12 07:58N 38°02' E 023°36'0 0.0
2017-Dec-12 07:28N 38°02' E 023°36'0 0.0
2017-Dec-12 06:55N 38°02' E 023°36'0 0.0
2017-Dec-12 06:28N 38°02' E 023°36'0 0.0
2017-Dec-12 05:58N 38°02' E 023°36'0 0.0
2017-Dec-12 05:28N 38°02' E 023°36'0 0.0
2017-Dec-12 04:58N 38°02' E 023°36'0 0.0
2017-Dec-12 04:28N 38°02' E 023°36'0 0.0
2017-Dec-12 03:58N 38°02' E 023°36'0 0.0
2017-Dec-12 03:28N 38°02' E 023°36'0 0.0
2017-Dec-12 02:58N 38°02' E 023°36'0 0.0
2017-Dec-12 02:28N 38°02' E 023°36'0 0.0
2017-Dec-12 01:58N 38°02' E 023°36'0 0.0
2017-Dec-12 01:28N 38°02' E 023°36'0 0.0
2017-Dec-12 00:58N 38°02' E 023°36'0 0.0
2017-Dec-12 00:28N 38°02' E 023°36'0 0.0
2017-Dec-11 23:58N 38°02' E 023°36'0 0.0
2017-Dec-11 23:28N 38°02' E 023°36'0 0.0
2017-Dec-11 22:58N 38°02' E 023°36'0 0.0
2017-Dec-11 22:28N 38°02' E 023°36'0 0.0
2017-Dec-11 21:58N 38°02' E 023°36'0 0.0
2017-Dec-11 21:28N 38°02' E 023°36'0 0.0
2017-Dec-11 20:58N 38°02' E 023°36'0 0.0
2017-Dec-11 20:28N 38°02' E 023°36'0 0.0
2017-Dec-11 19:58N 38°02' E 023°36'0 0.0
2017-Dec-11 19:28N 38°02' E 023°36'0 0.0
2017-Dec-11 18:58N 38°02' E 023°36'0 0.0
2017-Dec-11 18:28N 38°02' E 023°36'0 0.0
2017-Dec-11 17:58N 38°02' E 023°36'0 0.0
2017-Dec-11 17:28N 38°02' E 023°36'0 0.0
2017-Dec-11 16:58N 38°02' E 023°36'0 0.0
2017-Dec-11 16:28N 38°02' E 023°36'0 0.0
2017-Dec-11 15:58N 38°02' E 023°36'0 0.0
2017-Dec-11 15:28N 38°02' E 023°36'0 0.0
2017-Dec-11 14:58N 38°02' E 023°36'0 0.0
2017-Dec-11 14:28N 38°02' E 023°36'0 0.0
2017-Dec-11 13:58N 38°02' E 023°36'0 0.2
2017-Dec-11 13:31N 38°02' E 023°36'3 6.2
2017-Dec-11 13:00N 38°01' E 023°32'0 0.2
2017-Dec-11 12:30N 38°01' E 023°32'0 0.0
2017-Dec-11 11:57N 38°01' E 023°32'0 0.0
2017-Dec-11 11:30N 38°01' E 023°32'0 0.0
2017-Dec-11 11:00N 38°01' E 023°32'0 0.1
2017-Dec-11 10:30N 38°01' E 023°32'0 0.1
2017-Dec-11 10:00N 38°01' E 023°32'0 0.0
2017-Dec-11 09:30N 38°01' E 023°32'0 0.2
2017-Dec-11 09:00N 38°01' E 023°32'1 2.9
2017-Dec-11 08:30N 37°60' E 023°33'5 9.3
2017-Dec-11 08:00N 37°56' E 023°35'1 1.9
2017-Dec-11 07:30N 37°55' E 023°35'1 2.8
2017-Dec-11 07:00N 37°54' E 023°36'0 0.7
2017-Dec-11 06:30N 37°53' E 023°37'1 1.2
2017-Dec-11 06:00N 37°53' E 023°37'510.7
2017-Dec-11 05:30N 37°48' E 023°40'612.6
2017-Dec-11 05:00N 37°43' E 023°44'612.7
2017-Dec-11 04:30N 37°38' E 023°49'1312.4
2017-Dec-11 03:29N 37°29' E 024°00'612.3
2017-Dec-11 03:00N 37°24' E 024°05'612.3
2017-Dec-11 02:30N 37°19' E 024°10'612.6
2017-Dec-11 02:00N 37°14' E 024°14'612.5
2017-Dec-11 01:30N 37°09' E 024°19'612.3
2017-Dec-11 01:00N 37°05' E 024°24'612.4
2017-Dec-11 00:30N 37°00' E 024°30'612.6
2017-Dec-11 00:00N 36°56' E 024°35'612.2
2017-Dec-10 23:30N 36°52' E 024°41'612.3
2017-Dec-10 23:00N 36°51' E 024°49'8 4.3
2017-Dec-10 21:08N 36°51' E 024°59'112.0
2017-Dec-10 21:00N 36°51' E 025°01'611.9
2017-Dec-10 20:30N 36°51' E 025°08'611.7
2017-Dec-10 20:00N 36°50' E 025°15'611.6
2017-Dec-10 19:30N 36°48' E 025°22'612.3
2017-Dec-10 19:00N 36°47' E 025°30'612.0
2017-Dec-10 18:30N 36°46' E 025°37'611.6
2017-Dec-10 18:00N 36°44' E 025°44'611.4
2017-Dec-10 17:30N 36°43' E 025°51'611.2
2017-Dec-10 17:00N 36°43' E 025°58'511.0
2017-Dec-10 16:30N 36°43' E 026°05'611.1
2017-Dec-10 16:00N 36°42' E 026°12'611.4
2017-Dec-10 15:30N 36°42' E 026°19'611.6
2017-Dec-10 15:00N 36°42' E 026°26'612.0
2017-Dec-10 14:30N 36°40' E 026°33'612.2
2017-Dec-10 14:00N 36°38' E 026°40'  

Dump ship's entire track history